createdAt,value
2022-08-05T00:00:17.772Z,18.33
2022-08-05T00:02:51.778Z,18.46
2022-08-05T00:05:27.164Z,18.32
2022-08-05T00:08:19.740Z,18.41
2022-08-05T00:11:00.694Z,18.33
2022-08-05T00:13:38.487Z,18.31
2022-08-05T00:16:09.205Z,18.12
2022-08-05T00:18:42.412Z,18.19
2022-08-05T00:21:14.459Z,18.12
2022-08-05T00:23:45.813Z,18.12
2022-08-05T00:26:16.686Z,18.08
2022-08-05T00:28:45.869Z,17.99
2022-08-05T00:31:14.477Z,17.99
2022-08-05T00:34:53.691Z,17.89
2022-08-05T00:37:11.169Z,17.85
2022-08-05T00:39:21.141Z,17.84
2022-08-05T00:41:55.578Z,17.97
2022-08-05T00:44:30.874Z,17.87
2022-08-05T00:47:02.013Z,17.73
2022-08-05T00:49:51.289Z,17.59
2022-08-05T00:52:28.573Z,17.66
2022-08-05T00:54:57.219Z,17.69
2022-08-05T00:57:38.453Z,17.68
2022-08-05T01:00:15.211Z,17.66
2022-08-05T01:02:46.247Z,17.64
2022-08-05T01:05:15.677Z,17.61
2022-08-05T01:08:41.838Z,17.70
2022-08-05T01:10:38.004Z,17.69
2022-08-05T01:13:22.286Z,17.57
2022-08-05T01:16:02.970Z,17.42
2022-08-05T01:18:39.113Z,17.42
2022-08-05T01:21:22.759Z,17.38
2022-08-05T01:24:14.195Z,17.53
2022-08-05T01:26:56.186Z,17.49
2022-08-05T01:29:31.558Z,17.43
2022-08-05T01:32:12.576Z,17.37
2022-08-05T01:34:50.864Z,17.44
2022-08-05T01:37:25.533Z,17.46
2022-08-05T01:39:59.176Z,17.32
2022-08-05T01:42:29.037Z,17.08
2022-08-05T01:45:02.451Z,17.14
2022-08-05T01:47:39.353Z,17.02
2022-08-05T01:50:15.421Z,16.99
2022-08-05T01:52:49.624Z,17.05
2022-08-05T01:55:21.321Z,16.99
2022-08-05T01:58:12.358Z,17.04
2022-08-05T02:00:45.210Z,17.08
2022-08-05T02:03:29.053Z,17.00
2022-08-05T02:06:37.975Z,16.87
2022-08-05T02:08:55.189Z,16.89
2022-08-05T02:11:33.129Z,17.00
2022-08-05T02:14:13.151Z,16.99
2022-08-05T02:16:52.877Z,16.99
2022-08-05T02:19:34.176Z,16.73
2022-08-05T02:22:17.426Z,16.71
2022-08-05T02:25:00.098Z,16.70
2022-08-05T02:27:57.858Z,16.68
2022-08-05T02:30:19.205Z,16.73
2022-08-05T02:32:52.391Z,16.66
2022-08-05T02:35:33.000Z,16.63
2022-08-05T02:38:03.204Z,16.79
2022-08-05T02:40:33.869Z,16.64
2022-08-05T02:43:03.212Z,16.52
2022-08-05T02:45:51.603Z,16.64
2022-08-05T02:48:29.120Z,16.69
2022-08-05T02:51:01.113Z,16.68
2022-08-05T02:53:35.891Z,16.52
2022-08-05T02:56:09.650Z,16.48
2022-08-05T02:58:45.022Z,16.55
2022-08-05T03:01:24.911Z,16.54
2022-08-05T03:04:03.012Z,16.49
2022-08-05T03:06:54.300Z,16.24
2022-08-05T03:09:27.103Z,16.25
2022-08-05T03:12:07.863Z,16.42
2022-08-05T03:14:45.756Z,16.38
2022-08-05T03:17:14.415Z,16.35
2022-08-05T03:19:45.549Z,16.22
2022-08-05T03:22:16.360Z,16.36
2022-08-05T03:24:50.913Z,16.27
2022-08-05T03:27:20.159Z,16.34
2022-08-05T03:30:08.133Z,16.32
2022-08-05T03:32:37.080Z,16.28
2022-08-05T03:35:08.931Z,16.38
2022-08-05T03:37:46.618Z,16.25
2022-08-05T03:40:24.150Z,16.15
2022-08-05T03:42:59.518Z,16.30
2022-08-05T03:45:55.103Z,16.22
2022-08-05T03:48:29.250Z,16.15
2022-08-05T03:52:37.323Z,16.09
2022-08-05T03:55:00.350Z,16.07
2022-08-05T03:56:50.920Z,16.09
2022-08-05T03:59:25.215Z,16.06
2022-08-05T04:01:59.005Z,15.86
2022-08-05T04:04:29.049Z,15.87
2022-08-05T04:07:00.256Z,15.92
2022-08-05T04:09:30.093Z,15.88
2022-08-05T04:12:05.219Z,15.81
2022-08-05T04:14:52.547Z,15.84
2022-08-05T04:17:20.649Z,15.66
2022-08-05T04:19:54.359Z,15.63
2022-08-05T04:22:24.193Z,15.60
2022-08-05T04:24:54.760Z,15.62
2022-08-05T04:27:42.056Z,15.66
2022-08-05T04:30:12.527Z,15.73
2022-08-05T04:32:42.238Z,15.58
2022-08-05T04:35:17.638Z,15.58
2022-08-05T04:38:02.679Z,15.54
2022-08-05T04:40:36.248Z,15.47
2022-08-05T04:43:05.446Z,15.43
2022-08-05T04:45:48.607Z,15.52
2022-08-05T04:48:27.095Z,15.55
2022-08-05T04:51:03.304Z,15.58
2022-08-05T04:53:39.636Z,15.58
2022-08-05T04:56:33.049Z,15.57
2022-08-05T04:58:57.463Z,15.49
2022-08-05T05:02:05.550Z,15.51
2022-08-05T05:04:14.132Z,15.48
2022-08-05T05:06:49.371Z,15.42
2022-08-05T05:09:27.069Z,15.43
2022-08-05T05:12:00.291Z,15.39
2022-08-05T05:14:31.950Z,15.33
2022-08-05T05:17:00.633Z,15.39
2022-08-05T05:19:36.482Z,15.42
2022-08-05T05:22:24.668Z,15.39
2022-08-05T05:24:59.968Z,15.50
2022-08-05T05:27:44.636Z,15.48
2022-08-05T05:30:30.854Z,15.27
2022-08-05T05:33:08.964Z,15.32
2022-08-05T05:35:45.043Z,15.36
2022-08-05T05:38:14.271Z,15.41
2022-08-05T05:40:50.120Z,15.23
2022-08-05T05:43:27.723Z,15.34
2022-08-05T05:46:15.883Z,15.48
2022-08-05T05:48:48.272Z,15.49
2022-08-05T05:51:21.604Z,15.46
2022-08-05T05:53:57.428Z,15.41
2022-08-05T05:56:32.507Z,15.47
2022-08-05T05:59:05.599Z,15.50
2022-08-05T06:01:40.809Z,15.55
2022-08-05T06:04:26.057Z,15.56
2022-08-05T06:06:54.776Z,15.59
2022-08-05T06:09:27.475Z,15.52
2022-08-05T06:12:12.589Z,15.64
2022-08-05T06:14:45.029Z,15.77
2022-08-05T06:17:22.608Z,15.71
2022-08-05T06:19:56.796Z,15.76
2022-08-05T06:22:29.460Z,15.69
2022-08-05T06:24:58.314Z,15.73
2022-08-05T06:28:10.904Z,15.88
2022-08-05T06:30:20.909Z,15.81
2022-08-05T06:32:50.760Z,15.80
2022-08-05T06:36:03.831Z,15.86
2022-08-05T06:38:11.085Z,15.76
2022-08-05T06:40:42.034Z,15.95
2022-08-05T06:43:57.742Z,16.08
2022-08-05T06:46:06.879Z,16.20
2022-08-05T06:48:55.577Z,16.22
2022-08-05T06:51:29.716Z,16.10
2022-08-05T06:53:59.938Z,16.24
2022-08-05T06:56:28.424Z,16.26
2022-08-05T06:58:58.065Z,16.27
2022-08-05T07:01:27.656Z,16.38
2022-08-05T07:04:02.277Z,16.38
2022-08-05T07:06:32.246Z,16.49
2022-08-05T07:09:03.811Z,16.39
2022-08-05T07:11:36.970Z,16.50
2022-08-05T07:14:29.406Z,16.52
2022-08-05T07:18:01.164Z,16.28
2022-08-05T07:20:31.583Z,16.68
2022-08-05T07:22:39.428Z,16.73
2022-08-05T07:25:23.686Z,16.83
2022-08-05T07:28:07.241Z,17.00
2022-08-05T07:30:41.134Z,16.99
2022-08-05T07:33:16.226Z,17.02
2022-08-05T07:36:01.994Z,17.21
2022-08-05T07:38:42.588Z,17.14
2022-08-05T07:42:08.288Z,17.56
2022-08-05T07:44:02.828Z,18.28
2022-08-05T07:46:37.441Z,18.23
2022-08-05T07:49:07.946Z,17.93
2022-08-05T07:51:40.709Z,17.97
2022-08-05T07:54:11.461Z,18.03
2022-08-05T07:57:01.507Z,17.93
2022-08-05T07:59:38.655Z,17.98
2022-08-05T08:02:16.996Z,18.24
2022-08-05T08:04:48.220Z,18.44
2022-08-05T08:07:22.253Z,18.29
2022-08-05T08:09:55.165Z,18.37
2022-08-05T08:12:36.902Z,18.47
2022-08-05T08:15:13.981Z,18.24
2022-08-05T08:17:49.876Z,18.35
2022-08-05T08:20:43.665Z,18.44
2022-08-05T08:24:00.167Z,18.38
2022-08-05T08:25:59.078Z,18.44
2022-08-05T08:28:36.547Z,18.59
2022-08-05T08:31:06.193Z,18.53
2022-08-05T08:33:37.928Z,18.90
2022-08-05T08:38:57.048Z,18.73
2022-08-05T08:41:51.857Z,18.70
2022-08-05T08:45:19.601Z,19.24
2022-08-05T08:47:47.724Z,19.63
2022-08-05T08:50:06.025Z,19.46
2022-08-05T08:52:51.786Z,19.75
2022-08-05T08:55:31.869Z,19.77
2022-08-05T08:58:12.883Z,19.78
2022-08-05T09:00:42.789Z,19.53
2022-08-05T09:03:11.568Z,19.77
2022-08-05T09:06:08.518Z,20.06
2022-08-05T09:08:30.242Z,20.26
2022-08-05T09:10:58.835Z,20.37
2022-08-05T09:13:31.456Z,20.89
2022-08-05T09:16:01.097Z,20.41
2022-08-05T09:18:30.263Z,20.29
2022-08-05T09:21:00.099Z,20.41
2022-08-05T09:23:37.286Z,20.18
2022-08-05T09:26:15.895Z,20.33
2022-08-05T09:28:49.789Z,20.45
2022-08-05T09:31:43.729Z,20.57
2022-08-05T09:34:09.853Z,20.71
2022-08-05T09:36:55.873Z,20.50
2022-08-05T09:39:41.859Z,20.48
2022-08-05T09:42:28.120Z,20.44
2022-08-05T09:45:17.923Z,20.21
2022-08-05T09:47:55.827Z,20.36
2022-08-05T09:50:37.538Z,20.34
2022-08-05T09:53:22.691Z,20.69
2022-08-05T09:56:05.042Z,20.46
2022-08-05T09:58:41.898Z,20.91
2022-08-05T10:01:14.907Z,20.77
2022-08-05T10:03:59.106Z,20.85
2022-08-05T10:06:28.614Z,20.77
2022-08-05T10:09:27.568Z,20.79
2022-08-05T10:12:18.630Z,20.42
2022-08-05T10:15:16.182Z,20.67
2022-08-05T10:17:54.479Z,20.84
2022-08-05T10:20:26.947Z,21.24
2022-08-05T10:22:57.099Z,21.18
2022-08-05T10:25:28.506Z,20.99
2022-08-05T10:28:13.001Z,21.21
2022-08-05T10:32:48.641Z,21.13
2022-08-05T10:33:36.175Z,21.22
2022-08-05T10:36:05.789Z,21.62
2022-08-05T10:38:36.922Z,20.94
2022-08-05T10:41:14.604Z,20.90
2022-08-05T10:43:59.226Z,20.84
2022-08-05T10:46:44.829Z,21.23
2022-08-05T10:49:16.533Z,21.37
2022-08-05T10:51:58.295Z,21.42
2022-08-05T10:54:56.498Z,21.86
2022-08-05T10:57:32.348Z,22.22
2022-08-05T11:00:23.261Z,22.11
2022-08-05T11:03:23.239Z,21.98
2022-08-05T11:06:05.969Z,22.37
2022-08-05T11:08:39.172Z,22.13
2022-08-05T11:11:44.743Z,21.60
2022-08-05T11:14:57.675Z,22.07
2022-08-05T11:18:09.484Z,22.46
2022-08-05T11:20:44.153Z,22.35
2022-08-05T11:24:05.260Z,22.06
2022-08-05T11:26:33.528Z,22.54
2022-08-05T11:29:11.646Z,22.50
2022-08-05T11:31:57.342Z,22.09
2022-08-05T11:34:51.032Z,22.46
2022-08-05T11:38:30.567Z,22.80
2022-08-05T11:41:03.569Z,23.03
2022-08-05T11:44:04.513Z,23.25
2022-08-05T11:46:35.963Z,22.99
2022-08-05T11:49:08.039Z,23.73
2022-08-05T11:51:44.052Z,23.76
2022-08-05T11:54:33.400Z,23.65
2022-08-05T11:57:07.576Z,23.44
2022-08-05T11:59:41.363Z,23.22
2022-08-05T12:02:30.335Z,24.06
2022-08-05T12:05:07.385Z,23.37
2022-08-05T12:08:03.757Z,24.55
2022-08-05T12:10:42.950Z,24.90
2022-08-05T12:13:13.951Z,24.32
2022-08-05T12:15:49.459Z,23.57
2022-08-05T12:18:32.964Z,24.20
2022-08-05T12:21:13.052Z,24.58
2022-08-05T12:23:53.731Z,24.76
2022-08-05T12:26:23.816Z,24.71
2022-08-05T12:28:55.000Z,23.96
2022-08-05T12:31:42.418Z,24.12
2022-08-05T12:34:14.679Z,24.39
2022-08-05T12:36:53.503Z,24.54
2022-08-05T12:39:22.217Z,25.42
2022-08-05T12:41:58.034Z,25.59
2022-08-05T12:44:33.837Z,25.16
2022-08-05T12:47:04.678Z,24.55
2022-08-05T12:50:03.968Z,24.38
2022-08-05T12:52:39.190Z,24.18
2022-08-05T12:55:26.411Z,24.29
2022-08-05T12:58:51.067Z,24.07
2022-08-05T13:02:02.060Z,24.27
2022-08-05T13:03:42.272Z,23.56
2022-08-05T13:06:16.012Z,23.88
2022-08-05T13:08:51.524Z,23.34
2022-08-05T13:11:47.006Z,23.63
2022-08-05T13:14:24.808Z,23.34
2022-08-05T13:17:10.280Z,22.93
2022-08-05T13:19:51.785Z,22.86
2022-08-05T13:22:28.185Z,23.20
2022-08-05T13:25:08.076Z,23.05
2022-08-05T13:27:50.394Z,22.73
2022-08-05T13:30:35.644Z,22.43
2022-08-05T13:33:07.584Z,22.59
2022-08-05T13:36:02.030Z,22.34
2022-08-05T13:38:34.257Z,22.42
2022-08-05T13:41:08.210Z,22.70
2022-08-05T13:43:44.528Z,22.69
2022-08-05T13:46:37.656Z,22.64
2022-08-05T13:49:10.034Z,22.85
2022-08-05T13:51:46.035Z,22.94
2022-08-05T13:54:16.454Z,22.65
2022-08-05T13:56:51.462Z,22.24
2022-08-05T13:59:23.972Z,22.28
2022-08-05T14:01:58.016Z,22.56
2022-08-05T14:04:49.933Z,22.50
2022-08-05T14:07:56.360Z,22.33
2022-08-05T14:10:10.469Z,22.13
2022-08-05T14:12:42.871Z,22.20
2022-08-05T14:16:08.955Z,22.02
2022-08-05T14:18:01.357Z,22.07
2022-08-05T14:20:30.790Z,22.14
2022-08-05T14:22:59.226Z,21.79
2022-08-05T14:25:30.127Z,21.88
2022-08-05T14:28:06.440Z,21.97
2022-08-05T14:30:35.168Z,21.99
2022-08-05T14:33:04.788Z,21.93
2022-08-05T14:35:37.492Z,21.61
2022-08-05T14:38:31.571Z,21.74
2022-08-05T14:41:05.805Z,21.87
2022-08-05T14:43:59.743Z,21.91
2022-08-05T14:46:28.819Z,21.83
2022-08-05T14:48:59.024Z,22.00
2022-08-05T14:51:31.842Z,21.74
2022-08-05T14:54:27.690Z,21.82
2022-08-05T14:56:54.802Z,21.74
2022-08-05T14:59:24.972Z,21.63
2022-08-05T15:01:58.211Z,21.74
2022-08-05T15:04:29.006Z,21.65
2022-08-05T15:06:57.643Z,21.91
2022-08-05T15:09:52.462Z,22.20
2022-08-05T15:12:16.699Z,22.23
2022-08-05T15:14:50.257Z,22.23
2022-08-05T15:17:47.753Z,22.39
2022-08-05T15:20:18.872Z,22.28
2022-08-05T15:22:54.550Z,22.30
2022-08-05T15:25:50.821Z,22.21
2022-08-05T15:28:16.227Z,22.32
2022-08-05T15:30:47.013Z,22.29
2022-08-05T15:34:04.126Z,22.13
2022-08-05T15:36:16.734Z,22.00
2022-08-05T15:40:41.028Z,22.12
2022-08-05T15:41:57.505Z,22.07
2022-08-05T15:44:29.979Z,21.83
2022-08-05T15:47:03.748Z,21.81
2022-08-05T15:49:52.021Z,21.80
2022-08-05T15:52:29.290Z,21.76
2022-08-05T15:55:15.718Z,21.83
2022-08-05T15:57:45.940Z,21.79
2022-08-05T16:00:25.984Z,21.76
2022-08-05T16:03:02.572Z,21.95
2022-08-05T16:05:31.298Z,21.82
2022-08-05T16:08:01.546Z,21.93
2022-08-05T16:10:29.775Z,21.89
2022-08-05T16:12:59.399Z,21.90
2022-08-05T16:15:32.489Z,21.77
2022-08-05T16:18:09.085Z,21.84
2022-08-05T16:20:37.550Z,21.71
2022-08-05T16:23:08.411Z,21.73
2022-08-05T16:25:37.422Z,21.47
2022-08-05T16:28:09.803Z,21.59
2022-08-05T16:30:39.280Z,21.65
2022-08-05T16:33:11.466Z,21.64
2022-08-05T16:35:42.436Z,21.41
2022-08-05T16:38:18.644Z,21.41
2022-08-05T16:41:00.731Z,21.53
2022-08-05T16:43:31.553Z,21.66
2022-08-05T16:46:23.846Z,21.77
2022-08-05T16:48:53.096Z,21.98
2022-08-05T16:51:24.358Z,21.80
2022-08-05T16:54:03.296Z,21.69
2022-08-05T16:56:36.290Z,22.33
2022-08-05T16:59:09.195Z,22.65
2022-08-05T17:01:53.957Z,22.94
2022-08-05T17:04:28.054Z,23.19
2022-08-05T17:07:03.437Z,23.67
2022-08-05T17:09:57.495Z,24.45
2022-08-05T17:12:51.802Z,24.82
2022-08-05T17:15:19.542Z,25.08
2022-08-05T17:17:54.998Z,25.09
2022-08-05T17:20:28.918Z,24.27
2022-08-05T17:22:57.551Z,24.27
2022-08-05T17:25:33.996Z,24.12
2022-08-05T17:28:09.253Z,24.22
2022-08-05T17:30:50.744Z,25.22
2022-08-05T17:33:23.177Z,24.81
2022-08-05T17:36:08.655Z,24.74
2022-08-05T17:38:39.970Z,24.64
2022-08-05T17:42:16.692Z,24.39
2022-08-05T17:44:08.627Z,24.00
2022-08-05T17:46:40.857Z,23.73
2022-08-05T17:49:16.566Z,23.65
2022-08-05T17:51:47.807Z,23.48
2022-08-05T17:54:23.240Z,23.34
2022-08-05T17:56:52.284Z,23.38
2022-08-05T17:59:21.126Z,23.09
2022-08-05T18:01:55.977Z,23.16
2022-08-05T18:04:27.833Z,22.89
2022-08-05T18:07:00.323Z,22.95
2022-08-05T18:10:00.480Z,22.88
2022-08-05T18:12:24.246Z,22.88
2022-08-05T18:14:54.415Z,22.64
2022-08-05T18:17:58.994Z,22.33
2022-08-05T18:20:19.102Z,22.42
2022-08-05T18:22:57.345Z,22.31
2022-08-05T18:25:32.778Z,22.34
2022-08-05T18:28:05.118Z,22.18
2022-08-05T18:30:39.148Z,22.26
2022-08-05T18:33:13.508Z,22.08
2022-08-05T18:36:01.351Z,21.89
2022-08-05T18:38:35.948Z,21.81
2022-08-05T18:41:56.360Z,21.82
2022-08-05T18:44:06.276Z,21.61
2022-08-05T18:46:36.493Z,21.62
2022-08-05T18:49:20.063Z,21.54
2022-08-05T18:52:08.567Z,21.59
2022-08-05T18:54:46.105Z,21.57
2022-08-05T18:57:24.082Z,21.49
2022-08-05T19:00:13.240Z,21.48
2022-08-05T19:02:50.958Z,21.42
2022-08-05T19:06:11.671Z,21.35
2022-08-05T19:08:13.772Z,21.23
2022-08-05T19:10:52.103Z,21.25
2022-08-05T19:13:25.932Z,21.07
2022-08-05T19:16:03.756Z,21.06
2022-08-05T19:18:33.725Z,20.99
2022-08-05T19:21:02.924Z,20.97
2022-08-05T19:24:06.054Z,20.94
2022-08-05T19:26:29.848Z,20.91
2022-08-05T19:29:02.779Z,20.91
2022-08-05T19:31:44.995Z,20.91
2022-08-05T19:34:22.854Z,20.90
2022-08-05T19:36:54.709Z,20.81
2022-08-05T19:39:28.323Z,20.78
2022-08-05T19:42:07.220Z,20.70
2022-08-05T19:44:45.159Z,20.72
2022-08-05T19:47:16.349Z,20.67
2022-08-05T19:49:46.100Z,20.62
2022-08-05T19:52:30.300Z,20.43
2022-08-05T19:56:11.364Z,20.61
2022-08-05T19:58:19.781Z,20.55
2022-08-05T20:00:51.832Z,20.49
2022-08-05T20:03:20.924Z,20.40
2022-08-05T20:05:56.830Z,20.42
2022-08-05T20:08:26.760Z,20.31
2022-08-05T20:10:55.711Z,20.40
2022-08-05T20:13:30.365Z,20.39
2022-08-05T20:16:14.119Z,20.30
2022-08-05T20:18:55.348Z,20.17
2022-08-05T20:21:29.017Z,20.11
2022-08-05T20:23:59.778Z,20.15
2022-08-05T20:26:28.850Z,20.00
2022-08-05T20:29:00.719Z,19.93
2022-08-05T20:31:42.094Z,20.02
2022-08-05T20:34:21.539Z,19.90
2022-08-05T20:36:55.275Z,19.92
2022-08-05T20:39:24.379Z,19.84
2022-08-05T20:42:05.930Z,19.81
2022-08-05T20:44:37.801Z,19.81
2022-08-05T20:47:08.008Z,19.79
2022-08-05T20:49:40.172Z,19.67
2022-08-05T20:52:10.560Z,19.75
2022-08-05T20:54:58.871Z,19.63
2022-08-05T20:57:43.511Z,19.61
2022-08-05T21:00:34.951Z,19.53
2022-08-05T21:03:07.796Z,19.58
2022-08-05T21:06:31.518Z,19.42
2022-08-05T21:09:01.450Z,19.32
2022-08-05T21:12:07.020Z,19.43
2022-08-05T21:14:18.064Z,19.36
2022-08-05T21:16:48.912Z,19.37
2022-08-05T21:19:23.936Z,19.34
2022-08-05T21:21:53.485Z,19.30
2022-08-05T21:24:23.564Z,19.18
2022-08-05T21:26:58.299Z,19.21
2022-08-05T21:29:31.758Z,19.19
2022-08-05T21:32:05.206Z,19.20
2022-08-05T21:34:35.582Z,19.23
2022-08-05T21:37:04.940Z,19.16
2022-08-05T21:39:34.468Z,19.05
2022-08-05T21:42:03.119Z,18.88
2022-08-05T21:44:31.782Z,19.01
2022-08-05T21:47:00.341Z,18.98
2022-08-05T21:49:48.030Z,18.93
2022-08-05T21:52:27.599Z,18.96
2022-08-05T21:54:57.742Z,18.71
2022-08-05T21:57:34.917Z,18.76
2022-08-05T22:00:06.303Z,18.76
2022-08-05T22:02:42.498Z,18.71
2022-08-05T22:05:13.762Z,18.72
2022-08-05T22:07:58.364Z,18.61
2022-08-05T22:10:29.033Z,18.67
2022-08-05T22:12:59.127Z,18.53
2022-08-05T22:16:00.686Z,18.59
2022-08-05T22:18:33.268Z,18.46
2022-08-05T22:21:04.787Z,18.47
2022-08-05T22:24:13.006Z,18.53
2022-08-05T22:26:59.108Z,18.30
2022-08-05T22:29:30.557Z,18.38
2022-08-05T22:32:03.207Z,18.42
2022-08-05T22:34:32.772Z,18.27
2022-08-05T22:37:03.886Z,18.15
2022-08-05T22:39:34.462Z,18.11
2022-08-05T22:42:11.798Z,18.15
2022-08-05T22:44:42.620Z,18.07
2022-08-05T22:47:29.423Z,17.98
2022-08-05T22:50:19.629Z,17.97
2022-08-05T22:52:49.349Z,17.86
2022-08-05T22:55:19.167Z,17.80
2022-08-05T22:57:49.043Z,17.92
2022-08-05T23:00:21.001Z,17.81
2022-08-05T23:02:52.405Z,17.87
2022-08-05T23:05:22.243Z,17.81
2022-08-05T23:07:52.245Z,17.70
2022-08-05T23:10:23.506Z,17.68
2022-08-05T23:12:57.249Z,17.61
2022-08-05T23:15:29.949Z,17.58
2022-08-05T23:18:06.039Z,17.56
2022-08-05T23:20:40.027Z,17.45
2022-08-05T23:23:12.605Z,17.50
2022-08-05T23:25:53.469Z,17.55
2022-08-05T23:28:27.761Z,17.53
2022-08-05T23:31:15.839Z,17.36
2022-08-05T23:34:03.880Z,17.35
2022-08-05T23:36:40.018Z,17.48
2022-08-05T23:39:17.612Z,17.35
2022-08-05T23:42:00.996Z,17.22
2022-08-05T23:44:31.262Z,17.25
2022-08-05T23:47:02.310Z,17.27
2022-08-05T23:49:43.442Z,17.18
2022-08-05T23:52:30.808Z,17.14
2022-08-05T23:55:05.503Z,17.12
2022-08-05T23:57:35.837Z,16.99
